BDJ250 ZBAA-ZSJN
Flight info
| Callsign | BDJ250 |
|---|---|
| Flight time | 0h 44m |
| Altitude | 19700 |
| Route | ELKUR2G ELKUR W40 DOXAB/K0798S0630 W40 YQG |
| Aircraft | GLF6/M-SBDE2E3FGHIJ4J5M1RWXY/LB1D1 |
Departure
| Time | 2026-04-26 13:07 |
|---|---|
| Airport | Beijing Capital International Airport (ZBAA) |
Arrival
| Time | 2026-04-26 13:51 |
|---|---|
| Airport | Jinan Yaoqiang International Airport (ZSJN) |
| Time | Latitude | Longitude | Altitude | Speed | Heading |
|---|---|---|---|---|---|
| 2026-04-26 12:40 | 40.05664 | 116.59446 | 123 ft | 0 kts | 264° |
| 2026-04-26 12:53 | 40.05664 | 116.59445 | 123 ft | 0 kts | 264° |
| 2026-04-26 12:54 | 40.05666 | 116.59462 | 123 ft | 2 kts | 264° |
| 2026-04-26 12:54 | 40.05667 | 116.59481 | 123 ft | 2 kts | 264° |
| 2026-04-26 12:55 | 40.05669 | 116.59501 | 123 ft | 2 kts | 264° |
| 2026-04-26 12:55 | 40.05671 | 116.59521 | 123 ft | 2 kts | 271° |
| 2026-04-26 12:55 | 40.05667 | 116.59539 | 123 ft | 2 kts | 301° |
| 2026-04-26 12:55 | 40.05658 | 116.59553 | 123 ft | 2 kts | 329° |
| 2026-04-26 12:56 | 40.05645 | 116.59560 | 123 ft | 1 kts | 353° |
| 2026-04-26 12:56 | 40.05643 | 116.59560 | 123 ft | 0 kts | 354° |
| 2026-04-26 12:59 | 40.05644 | 116.59560 | 123 ft | 1 kts | 354° |
| 2026-04-26 12:59 | 40.05662 | 116.59557 | 123 ft | 3 kts | 353° |
| 2026-04-26 12:59 | 40.05683 | 116.59557 | 123 ft | 3 kts | 14° |
| 2026-04-26 12:59 | 40.05698 | 116.59576 | 123 ft | 3 kts | 63° |
| 2026-04-26 13:00 | 40.05710 | 116.59617 | 123 ft | 8 kts | 61° |
| 2026-04-26 13:00 | 40.05794 | 116.59632 | 123 ft | 16 kts | 354° |
| 2026-04-26 13:00 | 40.05907 | 116.59615 | 123 ft | 16 kts | 351° |
| 2026-04-26 13:00 | 40.06017 | 116.59594 | 123 ft | 15 kts | 353° |
| 2026-04-26 13:01 | 40.06127 | 116.59578 | 123 ft | 15 kts | 355° |
| 2026-04-26 13:01 | 40.06232 | 116.59564 | 123 ft | 15 kts | 353° |
| 2026-04-26 13:01 | 40.06338 | 116.59547 | 123 ft | 14 kts | 353° |
| 2026-04-26 13:01 | 40.06440 | 116.59531 | 123 ft | 14 kts | 353° |
| 2026-04-26 13:02 | 40.06541 | 116.59514 | 123 ft | 14 kts | 353° |
| 2026-04-26 13:02 | 40.06639 | 116.59499 | 123 ft | 14 kts | 353° |
| 2026-04-26 13:02 | 40.06736 | 116.59483 | 123 ft | 13 kts | 353° |
| 2026-04-26 13:02 | 40.06832 | 116.59469 | 123 ft | 13 kts | 354° |
| 2026-04-26 13:03 | 40.06920 | 116.59484 | 123 ft | 13 kts | 59° |
| 2026-04-26 13:03 | 40.06950 | 116.59555 | 123 ft | 8 kts | 2° |
| 2026-04-26 13:03 | 40.07009 | 116.59547 | 123 ft | 9 kts | 353° |
| 2026-04-26 13:03 | 40.07101 | 116.59532 | 123 ft | 17 kts | 354° |
| 2026-04-26 13:04 | 40.07256 | 116.59508 | 123 ft | 27 kts | 354° |
| 2026-04-26 13:04 | 40.07432 | 116.59426 | 123 ft | 25 kts | 343° |
| 2026-04-26 13:04 | 40.07603 | 116.59397 | 123 ft | 24 kts | 353° |
| 2026-04-26 13:04 | 40.07769 | 116.59371 | 123 ft | 23 kts | 354° |
| 2026-04-26 13:05 | 40.07931 | 116.59346 | 123 ft | 23 kts | 354° |
| 2026-04-26 13:05 | 40.08091 | 116.59322 | 123 ft | 25 kts | 352° |
| 2026-04-26 13:05 | 40.08340 | 116.59283 | 123 ft | 25 kts | 353° |
| 2026-04-26 13:05 | 40.08553 | 116.59250 | 123 ft | 30 kts | 354° |
| 2026-04-26 13:06 | 40.08761 | 116.59219 | 123 ft | 28 kts | 353° |
| 2026-04-26 13:06 | 40.08940 | 116.59203 | 123 ft | 22 kts | 22° |
| 2026-04-26 13:06 | 40.08968 | 116.59370 | 123 ft | 19 kts | 121° |
| 2026-04-26 13:06 | 40.08874 | 116.59486 | 123 ft | 18 kts | 166° |
| 2026-04-26 13:07 | 40.08573 | 116.59537 | 123 ft | 86 kts | 173° |
| 2026-04-26 13:07 | 40.07733 | 116.59665 | 311 ft | 143 kts | 173° |
| 2026-04-26 13:07 | 40.06712 | 116.59806 | 1101 ft | 153 kts | 173° |
| 2026-04-26 13:07 | 40.05770 | 116.59923 | 1907 ft | 136 kts | 173° |
| 2026-04-26 13:08 | 40.04842 | 116.60036 | 2350 ft | 147 kts | 173° |
| 2026-04-26 13:08 | 40.03789 | 116.60188 | 3454 ft | 159 kts | 171° |
| 2026-04-26 13:08 | 40.02750 | 116.60381 | 4711 ft | 157 kts | 171° |
| 2026-04-26 13:08 | 40.01694 | 116.60566 | 5821 ft | 164 kts | 171° |
| 2026-04-26 13:09 | 40.00541 | 116.60764 | 6890 ft | 176 kts | 172° |
| 2026-04-26 13:09 | 39.99330 | 116.60969 | 8006 ft | 185 kts | 174° |
| 2026-04-26 13:09 | 39.98058 | 116.61176 | 9131 ft | 194 kts | 177° |
| 2026-04-26 13:09 | 39.96667 | 116.61397 | 10111 ft | 213 kts | 178° |
| 2026-04-26 13:10 | 39.95184 | 116.61628 | 11202 ft | 225 kts | 179° |
| 2026-04-26 13:10 | 39.93619 | 116.61873 | 12401 ft | 235 kts | 179° |
| 2026-04-26 13:10 | 39.92006 | 116.62125 | 13649 ft | 241 kts | 180° |
| 2026-04-26 13:10 | 39.90345 | 116.62385 | 14940 ft | 246 kts | 180° |
| 2026-04-26 13:11 | 39.88662 | 116.62648 | 16200 ft | 250 kts | 181° |
| 2026-04-26 13:11 | 39.86879 | 116.62918 | 17139 ft | 270 kts | 180° |
| 2026-04-26 13:11 | 39.84964 | 116.63213 | 18055 ft | 293 kts | 180° |
| 2026-04-26 13:11 | 39.82907 | 116.63532 | 19239 ft | 306 kts | 179° |
| 2026-04-26 13:12 | 39.80788 | 116.63857 | 20450 ft | 319 kts | 180° |
| 2026-04-26 13:12 | 39.78523 | 116.64201 | 20624 ft | 331 kts | 179° |
| 2026-04-26 13:12 | 39.76255 | 116.64552 | 20640 ft | 327 kts | 179° |
| 2026-04-26 13:12 | 39.73968 | 116.64901 | 20645 ft | 343 kts | 179° |
| 2026-04-26 13:13 | 39.71437 | 116.65274 | 20668 ft | 392 kts | 178° |
| 2026-04-26 13:13 | 39.68637 | 116.65703 | 20658 ft | 417 kts | 178° |
| 2026-04-26 13:13 | 39.65720 | 116.66163 | 20640 ft | 424 kts | 176° |
| 2026-04-26 13:13 | 39.62812 | 116.66901 | 20647 ft | 425 kts | 172° |
| 2026-04-26 13:14 | 39.59895 | 116.67680 | 20642 ft | 425 kts | 173° |
| 2026-04-26 13:14 | 39.57026 | 116.68432 | 20640 ft | 422 kts | 173° |
| 2026-04-26 13:14 | 39.54146 | 116.69395 | 20632 ft | 427 kts | 162° |
| 2026-04-26 13:14 | 39.51479 | 116.71152 | 20649 ft | 430 kts | 154° |
| 2026-04-26 13:15 | 39.48854 | 116.73042 | 20645 ft | 431 kts | 154° |
| 2026-04-26 13:15 | 39.46232 | 116.74921 | 20646 ft | 429 kts | 154° |
| 2026-04-26 13:15 | 39.43650 | 116.76765 | 20641 ft | 430 kts | 154° |
| 2026-04-26 13:15 | 39.41038 | 116.78628 | 20644 ft | 429 kts | 154° |
| 2026-04-26 13:16 | 39.38383 | 116.80520 | 20643 ft | 431 kts | 154° |
| 2026-04-26 13:16 | 39.35794 | 116.82362 | 20644 ft | 429 kts | 154° |
| 2026-04-26 13:16 | 39.33122 | 116.84111 | 20634 ft | 427 kts | 161° |
| 2026-04-26 13:16 | 39.30341 | 116.85522 | 20646 ft | 426 kts | 162° |
| 2026-04-26 13:17 | 39.24844 | 116.88289 | 20641 ft | 427 kts | 162° |
| 2026-04-26 13:17 | 39.22063 | 116.89693 | 20644 ft | 427 kts | 162° |
| 2026-04-26 13:18 | 39.16534 | 116.92475 | 20643 ft | 426 kts | 163° |
| 2026-04-26 13:18 | 39.13712 | 116.93257 | 20641 ft | 418 kts | 181° |
| 2026-04-26 13:18 | 39.08219 | 116.91647 | 20667 ft | 401 kts | 208° |
| 2026-04-26 13:19 | 39.05657 | 116.90213 | 20660 ft | 403 kts | 208° |
| 2026-04-26 13:19 | 39.03121 | 116.88771 | 20660 ft | 401 kts | 208° |
| 2026-04-26 13:19 | 39.00580 | 116.87320 | 20663 ft | 401 kts | 209° |
| 2026-04-26 13:19 | 38.98026 | 116.85858 | 20663 ft | 402 kts | 208° |
| 2026-04-26 13:20 | 38.95454 | 116.84387 | 20656 ft | 401 kts | 208° |
| 2026-04-26 13:20 | 38.92922 | 116.82941 | 20654 ft | 401 kts | 209° |
| 2026-04-26 13:20 | 38.90360 | 116.81475 | 20651 ft | 403 kts | 209° |
| 2026-04-26 13:20 | 38.87807 | 116.80019 | 20648 ft | 401 kts | 209° |
| 2026-04-26 13:21 | 38.85249 | 116.78560 | 20649 ft | 402 kts | 208° |
| 2026-04-26 13:21 | 38.83564 | 116.77599 | 20647 ft | 401 kts | 208° |
| 2026-04-26 13:21 | 38.80148 | 116.75661 | 20641 ft | 403 kts | 208° |
| 2026-04-26 13:21 | 38.77567 | 116.74197 | 20637 ft | 404 kts | 208° |
| 2026-04-26 13:22 | 38.75006 | 116.72747 | 20637 ft | 402 kts | 208° |
| 2026-04-26 13:22 | 38.72447 | 116.71297 | 20640 ft | 403 kts | 208° |
| 2026-04-26 13:22 | 38.69908 | 116.69862 | 20637 ft | 402 kts | 209° |
| 2026-04-26 13:22 | 38.67331 | 116.68404 | 20636 ft | 402 kts | 209° |
| 2026-04-26 13:23 | 38.64768 | 116.66988 | 20627 ft | 404 kts | 205° |
| 2026-04-26 13:23 | 38.61971 | 116.66251 | 20637 ft | 411 kts | 190° |
| 2026-04-26 13:23 | 38.59105 | 116.65929 | 20638 ft | 413 kts | 189° |
| 2026-04-26 13:23 | 38.56265 | 116.65609 | 20637 ft | 412 kts | 189° |
| 2026-04-26 13:24 | 38.53384 | 116.65281 | 20632 ft | 413 kts | 189° |
| 2026-04-26 13:24 | 38.50548 | 116.64957 | 20632 ft | 413 kts | 189° |
| 2026-04-26 13:24 | 38.47657 | 116.64625 | 20638 ft | 413 kts | 189° |
| 2026-04-26 13:24 | 38.44820 | 116.64299 | 20637 ft | 413 kts | 189° |
| 2026-04-26 13:25 | 38.41948 | 116.63969 | 20631 ft | 414 kts | 189° |
| 2026-04-26 13:25 | 38.39063 | 116.63640 | 20633 ft | 413 kts | 190° |
| 2026-04-26 13:25 | 38.36194 | 116.63311 | 20633 ft | 413 kts | 190° |
| 2026-04-26 13:25 | 38.33338 | 116.62985 | 20637 ft | 413 kts | 190° |
| 2026-04-26 13:26 | 38.30454 | 116.62673 | 20627 ft | 414 kts | 187° |
| 2026-04-26 13:26 | 38.27573 | 116.63066 | 20628 ft | 424 kts | 170° |
| 2026-04-26 13:26 | 38.24735 | 116.64109 | 20637 ft | 425 kts | 167° |
| 2026-04-26 13:26 | 38.21904 | 116.65172 | 20638 ft | 425 kts | 167° |
| 2026-04-26 13:27 | 38.19041 | 116.66241 | 20633 ft | 427 kts | 167° |
| 2026-04-26 13:27 | 38.16210 | 116.67293 | 20628 ft | 425 kts | 167° |
| 2026-04-26 13:27 | 38.13379 | 116.68345 | 20631 ft | 428 kts | 167° |
| 2026-04-26 13:27 | 38.10540 | 116.69404 | 20634 ft | 425 kts | 167° |
| 2026-04-26 13:28 | 38.07713 | 116.70483 | 20631 ft | 425 kts | 167° |
| 2026-04-26 13:28 | 38.04872 | 116.71565 | 20633 ft | 427 kts | 167° |
| 2026-04-26 13:28 | 38.02009 | 116.72658 | 20638 ft | 427 kts | 167° |
| 2026-04-26 13:28 | 37.99182 | 116.73734 | 20641 ft | 425 kts | 167° |
| 2026-04-26 13:29 | 37.96350 | 116.74812 | 20633 ft | 427 kts | 167° |
| 2026-04-26 13:29 | 37.94467 | 116.75528 | 20641 ft | 426 kts | 167° |
| 2026-04-26 13:29 | 37.90676 | 116.76967 | 20639 ft | 426 kts | 167° |
| 2026-04-26 13:29 | 37.87855 | 116.78039 | 20630 ft | 428 kts | 167° |
| 2026-04-26 13:30 | 37.84976 | 116.79131 | 20629 ft | 426 kts | 167° |
| 2026-04-26 13:30 | 37.82141 | 116.80205 | 20634 ft | 427 kts | 167° |
| 2026-04-26 13:30 | 37.79321 | 116.81273 | 20626 ft | 429 kts | 167° |
| 2026-04-26 13:30 | 37.76451 | 116.82359 | 20629 ft | 427 kts | 167° |
| 2026-04-26 13:31 | 37.73598 | 116.83437 | 20626 ft | 427 kts | 167° |
| 2026-04-26 13:31 | 37.70743 | 116.84515 | 20634 ft | 429 kts | 167° |
| 2026-04-26 13:31 | 37.67883 | 116.85596 | 20609 ft | 430 kts | 167° |
| 2026-04-26 13:31 | 37.65055 | 116.86662 | 20617 ft | 429 kts | 168° |
| 2026-04-26 13:32 | 37.62186 | 116.87744 | 20621 ft | 428 kts | 167° |
| 2026-04-26 13:32 | 37.59340 | 116.88813 | 20472 ft | 430 kts | 167° |
| 2026-04-26 13:32 | 37.56491 | 116.89887 | 20216 ft | 426 kts | 167° |
| 2026-04-26 13:32 | 37.53618 | 116.90966 | 19960 ft | 428 kts | 168° |
| 2026-04-26 13:33 | 37.50795 | 116.92028 | 19679 ft | 423 kts | 168° |
| 2026-04-26 13:33 | 37.47964 | 116.93089 | 19429 ft | 423 kts | 167° |
| 2026-04-26 13:33 | 37.45154 | 116.94142 | 19193 ft | 421 kts | 167° |
| 2026-04-26 13:33 | 37.42354 | 116.95192 | 18941 ft | 418 kts | 167° |
| 2026-04-26 13:34 | 37.39580 | 116.96232 | 18672 ft | 417 kts | 167° |
| 2026-04-26 13:34 | 37.36788 | 116.97276 | 18422 ft | 414 kts | 167° |
| 2026-04-26 13:34 | 37.34160 | 116.98260 | 18176 ft | 414 kts | 167° |
| 2026-04-26 13:34 | 37.32319 | 116.98946 | 18028 ft | 411 kts | 167° |
| 2026-04-26 13:35 | 37.28641 | 117.00164 | 17675 ft | 408 kts | 174° |
| 2026-04-26 13:35 | 37.25861 | 117.00713 | 17426 ft | 405 kts | 175° |
| 2026-04-26 13:35 | 37.23041 | 117.01260 | 17182 ft | 404 kts | 175° |
| 2026-04-26 13:35 | 37.20281 | 117.01798 | 16945 ft | 401 kts | 175° |
| 2026-04-26 13:36 | 37.17521 | 117.02339 | 16704 ft | 401 kts | 175° |
| 2026-04-26 13:36 | 37.14788 | 117.02873 | 16467 ft | 397 kts | 174° |
| 2026-04-26 13:36 | 37.12039 | 117.03384 | 16216 ft | 397 kts | 178° |
| 2026-04-26 13:36 | 37.09282 | 117.03467 | 15966 ft | 393 kts | 184° |
| 2026-04-26 13:37 | 37.06572 | 117.03465 | 15731 ft | 391 kts | 184° |
| 2026-04-26 13:37 | 37.03862 | 117.03470 | 15479 ft | 391 kts | 184° |
| 2026-04-26 13:37 | 37.01125 | 117.03475 | 15258 ft | 388 kts | 183° |
| 2026-04-26 13:37 | 36.98447 | 117.03482 | 15029 ft | 386 kts | 184° |
| 2026-04-26 13:38 | 36.95766 | 117.03490 | 14799 ft | 386 kts | 183° |
| 2026-04-26 13:38 | 36.93065 | 117.03499 | 14735 ft | 383 kts | 183° |
| 2026-04-26 13:38 | 36.90393 | 117.03506 | 14613 ft | 385 kts | 183° |
| 2026-04-26 13:38 | 36.87761 | 117.03513 | 14111 ft | 375 kts | 182° |
| 2026-04-26 13:39 | 36.85193 | 117.03519 | 13581 ft | 367 kts | 182° |
| 2026-04-26 13:39 | 36.82633 | 117.03529 | 12932 ft | 362 kts | 182° |
| 2026-04-26 13:39 | 36.80131 | 117.03532 | 12239 ft | 362 kts | 182° |
| 2026-04-26 13:39 | 36.77636 | 117.03534 | 11393 ft | 364 kts | 182° |
| 2026-04-26 13:40 | 36.75127 | 117.03540 | 10434 ft | 353 kts | 182° |
| 2026-04-26 13:40 | 36.72818 | 117.03547 | 9499 ft | 319 kts | 182° |
| 2026-04-26 13:40 | 36.70584 | 117.03547 | 8774 ft | 323 kts | 182° |
| 2026-04-26 13:40 | 36.68350 | 117.03549 | 7779 ft | 313 kts | 182° |
| 2026-04-26 13:41 | 36.66267 | 117.03554 | 6883 ft | 290 kts | 182° |
| 2026-04-26 13:41 | 36.64308 | 117.03556 | 6012 ft | 281 kts | 182° |
| 2026-04-26 13:41 | 36.62410 | 117.03557 | 5150 ft | 267 kts | 182° |
| 2026-04-26 13:41 | 36.60635 | 117.03558 | 4916 ft | 242 kts | 182° |
| 2026-04-26 13:42 | 36.58967 | 117.03557 | 4842 ft | 235 kts | 182° |
| 2026-04-26 13:42 | 36.57354 | 117.03558 | 4842 ft | 231 kts | 181° |
| 2026-04-26 13:42 | 36.55833 | 117.04083 | 4846 ft | 234 kts | 145° |
| 2026-04-26 13:42 | 36.54879 | 117.05773 | 4882 ft | 261 kts | 107° |
| 2026-04-26 13:43 | 36.54740 | 117.08076 | 4863 ft | 263 kts | 88° |
| 2026-04-26 13:43 | 36.54778 | 117.10262 | 4847 ft | 249 kts | 89° |
| 2026-04-26 13:43 | 36.54800 | 117.12355 | 4847 ft | 235 kts | 89° |
| 2026-04-26 13:43 | 36.54813 | 117.14376 | 4854 ft | 228 kts | 89° |
| 2026-04-26 13:44 | 36.54822 | 117.16359 | 4857 ft | 226 kts | 89° |
| 2026-04-26 13:44 | 36.54828 | 117.18303 | 4857 ft | 225 kts | 89° |
| 2026-04-26 13:44 | 36.55130 | 117.20186 | 4858 ft | 224 kts | 57° |
| 2026-04-26 13:44 | 36.56290 | 117.21349 | 4876 ft | 219 kts | 14° |
| 2026-04-26 13:45 | 36.57792 | 117.21532 | 4876 ft | 218 kts | 358° |
| 2026-04-26 13:45 | 36.59497 | 117.21558 | 4885 ft | 249 kts | 358° |
| 2026-04-26 13:45 | 36.61214 | 117.21574 | 4564 ft | 248 kts | 358° |
| 2026-04-26 13:45 | 36.62931 | 117.21582 | 4209 ft | 243 kts | 358° |
| 2026-04-26 13:46 | 36.64585 | 117.21588 | 3891 ft | 227 kts | 358° |
| 2026-04-26 13:46 | 36.66119 | 117.21590 | 3599 ft | 215 kts | 358° |
| 2026-04-26 13:46 | 36.67561 | 117.21591 | 3388 ft | 200 kts | 358° |
| 2026-04-26 13:46 | 36.68908 | 117.21593 | 3152 ft | 184 kts | 359° |
| 2026-04-26 13:47 | 36.70149 | 117.21591 | 2865 ft | 172 kts | 0° |
| 2026-04-26 13:47 | 36.71312 | 117.21591 | 2653 ft | 158 kts | 1° |
| 2026-04-26 13:47 | 36.72319 | 117.21590 | 2413 ft | 136 kts | 2° |
| 2026-04-26 13:47 | 36.73180 | 117.21590 | 2226 ft | 130 kts | 3° |
| 2026-04-26 13:48 | 36.74096 | 117.21591 | 2051 ft | 126 kts | 5° |
| 2026-04-26 13:48 | 36.74965 | 117.21592 | 1888 ft | 124 kts | 6° |
| 2026-04-26 13:48 | 36.75822 | 117.21593 | 1723 ft | 122 kts | 7° |
| 2026-04-26 13:48 | 36.76671 | 117.21596 | 1561 ft | 122 kts | 6° |
| 2026-04-26 13:49 | 36.77522 | 117.21596 | 1398 ft | 122 kts | 6° |
| 2026-04-26 13:49 | 36.78377 | 117.21597 | 1229 ft | 121 kts | 5° |
| 2026-04-26 13:49 | 36.79226 | 117.21598 | 1065 ft | 121 kts | 5° |
| 2026-04-26 13:49 | 36.80061 | 117.21599 | 903 ft | 120 kts | 5° |
| 2026-04-26 13:50 | 36.80897 | 117.21602 | 738 ft | 119 kts | 6° |
| 2026-04-26 13:50 | 36.81725 | 117.21615 | 585 ft | 117 kts | 6° |
| 2026-04-26 13:50 | 36.82542 | 117.21622 | 457 ft | 115 kts | 5° |
| 2026-04-26 13:50 | 36.83346 | 117.21606 | 295 ft | 115 kts | 4° |
| 2026-04-26 13:51 | 36.84153 | 117.21593 | 122 ft | 113 kts | 4° |
| 2026-04-26 13:51 | 36.84855 | 117.21603 | 83 ft | 79 kts | 2° |
| 2026-04-26 13:51 | 36.85252 | 117.21606 | 83 ft | 53 kts | 1° |
| 2026-04-26 13:51 | 36.85589 | 117.21602 | 83 ft | 40 kts | 359° |
| 2026-04-26 13:52 | 36.85741 | 117.21557 | 83 ft | 17 kts | 298° |
| 2026-04-26 13:52 | 36.85748 | 117.21426 | 83 ft | 14 kts | 269° |
| 2026-04-26 13:52 | 36.85682 | 117.21375 | 83 ft | 13 kts | 179° |
| 2026-04-26 13:52 | 36.85590 | 117.21375 | 83 ft | 13 kts | 179° |
| 2026-04-26 13:53 | 36.85497 | 117.21376 | 83 ft | 13 kts | 181° |
| 2026-04-26 13:53 | 36.85405 | 117.21375 | 83 ft | 13 kts | 180° |
| 2026-04-26 13:53 | 36.85312 | 117.21375 | 83 ft | 13 kts | 180° |
| 2026-04-26 13:53 | 36.85218 | 117.21375 | 83 ft | 13 kts | 179° |
| 2026-04-26 13:54 | 36.85124 | 117.21375 | 83 ft | 13 kts | 179° |
| 2026-04-26 13:54 | 36.85030 | 117.21375 | 83 ft | 13 kts | 180° |
| 2026-04-26 13:54 | 36.84936 | 117.21374 | 83 ft | 13 kts | 180° |
| 2026-04-26 13:55 | 36.84748 | 117.21375 | 83 ft | 14 kts | 180° |
| 2026-04-26 13:55 | 36.84676 | 117.21374 | 83 ft | 15 kts | 180° |
| 2026-04-26 13:55 | 36.84420 | 117.21375 | 83 ft | 15 kts | 180° |
| 2026-04-26 13:56 | 36.84388 | 117.21358 | 83 ft | 4 kts | 245° |
| 2026-04-26 13:56 | 36.84384 | 117.21316 | 83 ft | 5 kts | 268° |
| 2026-04-26 13:56 | 36.84368 | 117.21277 | 83 ft | 5 kts | 204° |
| 2026-04-26 13:56 | 36.84329 | 117.21262 | 83 ft | 6 kts | 221° |
| 2026-04-26 13:57 | 36.84316 | 117.21170 | 83 ft | 13 kts | 271° |
| 2026-04-26 13:57 | 36.84316 | 117.21055 | 83 ft | 13 kts | 269° |
| 2026-04-26 13:57 | 36.84315 | 117.20955 | 83 ft | 11 kts | 269° |
| 2026-04-26 13:57 | 36.84271 | 117.20908 | 83 ft | 7 kts | 180° |
| 2026-04-26 13:58 | 36.84227 | 117.20908 | 83 ft | 0 kts | 180° |
| 2026-04-26 13:58 | 36.84226 | 117.20908 | 83 ft | 1 kts | 180° |
| 2026-04-26 13:58 | 36.84224 | 117.20908 | 83 ft | 0 kts | 180° |